createdAt,value
2018-11-22T00:02:15.039Z,1.97
2018-11-22T00:07:09.849Z,1.96
2018-11-22T00:12:04.613Z,1.89
2018-11-22T00:16:59.415Z,1.97
2018-11-22T00:21:54.266Z,2.02
2018-11-22T00:26:49.072Z,2.05
2018-11-22T00:31:43.815Z,1.83
2018-11-22T00:36:38.695Z,1.91
2018-11-22T00:41:33.401Z,1.95
2018-11-22T00:46:30.899Z,1.99
2018-11-22T00:51:25.705Z,2.02
2018-11-22T00:56:20.500Z,2.04
2018-11-22T01:01:15.346Z,2.08
2018-11-22T01:06:10.090Z,2.03
2018-11-22T01:11:04.846Z,2.03
2018-11-22T01:15:59.907Z,1.91
2018-11-22T01:20:54.673Z,2.01
2018-11-22T01:25:49.639Z,1.96
2018-11-22T01:30:44.380Z,2.00
2018-11-22T01:35:39.099Z,1.98
2018-11-22T01:40:33.865Z,2.00
2018-11-22T01:45:28.714Z,2.01
2018-11-22T01:50:23.585Z,1.93
2018-11-22T02:01:34.408Z,1.76
2018-11-22T02:12:32.957Z,1.65
2018-11-22T02:18:30.977Z,1.75
2018-11-22T02:23:34.688Z,1.77
2018-11-22T02:29:33.122Z,1.77
2018-11-22T02:35:31.883Z,1.79
2018-11-22T02:46:06.040Z,1.86
2018-11-22T02:51:00.814Z,1.84
2018-11-22T02:55:55.470Z,1.81
2018-11-22T03:00:50.203Z,1.83
2018-11-22T03:05:45.005Z,1.89
2018-11-22T03:10:39.845Z,1.88
2018-11-22T03:15:34.581Z,1.85
2018-11-22T03:20:31.808Z,1.83
2018-11-22T03:25:26.556Z,1.86
2018-11-22T03:30:22.313Z,1.79
2018-11-22T03:35:18.488Z,1.87
2018-11-22T03:40:14.459Z,1.91
2018-11-22T03:45:10.445Z,1.96
2018-11-22T03:50:07.995Z,2.04
2018-11-22T03:55:02.721Z,2.02
2018-11-22T03:59:58.441Z,2.02
2018-11-22T04:04:53.351Z,2.05
2018-11-22T04:09:48.093Z,1.98
2018-11-22T04:14:42.866Z,1.93
2018-11-22T04:19:37.860Z,1.84
2018-11-22T04:24:32.619Z,1.74
2018-11-22T04:29:27.326Z,1.78
2018-11-22T04:34:22.046Z,1.81
2018-11-22T04:39:16.789Z,1.68
2018-11-22T04:44:11.722Z,1.75
2018-11-22T04:49:06.589Z,1.80
2018-11-22T04:54:01.473Z,1.78
2018-11-22T04:58:56.236Z,1.81
2018-11-22T05:03:51.199Z,1.77
2018-11-22T05:08:46.144Z,1.78
2018-11-22T05:13:40.855Z,1.86
2018-11-22T05:18:35.570Z,1.86
2018-11-22T05:23:30.467Z,1.90
2018-11-22T05:28:25.174Z,1.86
2018-11-22T05:33:19.884Z,1.69
2018-11-22T05:38:14.718Z,1.60
2018-11-22T05:43:09.469Z,1.61
2018-11-22T05:48:04.248Z,1.60
2018-11-22T05:53:00.754Z,1.63
2018-11-22T05:57:55.740Z,1.71
2018-11-22T06:02:53.154Z,1.73
2018-11-22T06:07:47.999Z,1.73
2018-11-22T06:12:42.751Z,1.82
2018-11-22T06:17:37.942Z,1.86
2018-11-22T06:22:32.855Z,1.66
2018-11-22T12:19:03.181Z,4.35
2018-11-22T12:23:58.121Z,4.23
2018-11-22T12:28:52.929Z,4.18
2018-11-22T12:33:53.473Z,4.00
2018-11-22T12:38:48.350Z,4.11
2018-11-22T12:43:43.641Z,4.05
2018-11-22T12:48:38.571Z,4.08
2018-11-22T12:53:34.423Z,4.02
2018-11-22T12:58:29.344Z,4.05
2018-11-22T13:03:25.972Z,4.14
2018-11-22T13:08:20.858Z,4.22
2018-11-22T13:13:17.271Z,4.19
2018-11-22T13:18:12.300Z,4.22
2018-11-22T13:23:09.783Z,4.19
2018-11-22T13:28:04.910Z,4.26
2018-11-22T13:33:00.229Z,4.21
2018-11-22T13:37:56.041Z,4.27
2018-11-22T13:42:53.273Z,4.27
2018-11-22T13:47:49.832Z,4.26
2018-11-22T13:52:46.561Z,4.24
2018-11-22T13:57:42.521Z,4.30
2018-11-22T14:02:37.375Z,4.23
2018-11-22T14:07:32.225Z,4.19
2018-11-22T14:12:27.090Z,4.19
2018-11-22T14:17:22.227Z,4.17
2018-11-22T14:22:17.122Z,4.19
2018-11-22T14:27:12.043Z,4.23
2018-11-22T14:32:06.966Z,4.22
2018-11-22T14:37:01.879Z,4.14
2018-11-22T14:42:03.444Z,4.17
2018-11-22T14:46:58.379Z,4.08
2018-11-22T14:51:55.388Z,3.97
2018-11-22T14:56:50.231Z,3.97
2018-11-22T15:01:46.609Z,3.87
2018-11-22T15:06:41.556Z,3.79
2018-11-22T15:11:36.978Z,3.77
2018-11-22T15:16:31.953Z,3.65
2018-11-22T15:21:26.845Z,3.59
2018-11-22T15:26:21.698Z,3.58
2018-11-22T15:31:16.555Z,3.55
2018-11-22T15:36:11.375Z,3.46
2018-11-22T15:41:06.783Z,3.41
2018-11-22T15:46:01.652Z,3.38
2018-11-22T15:50:56.456Z,3.31
2018-11-22T15:55:51.403Z,3.26
2018-11-22T16:00:46.230Z,3.20
2018-11-22T16:05:41.098Z,3.11
2018-11-22T16:10:36.935Z,3.12
2018-11-22T16:15:39.029Z,3.07
2018-11-22T16:20:33.841Z,2.88
2018-11-22T16:25:28.968Z,2.70
2018-11-22T16:30:24.983Z,2.61
2018-11-22T16:35:20.826Z,2.62
2018-11-22T16:40:18.414Z,2.72
2018-11-22T16:45:25.570Z,2.69
2018-11-22T16:50:34.532Z,2.35
2018-11-22T16:55:30.098Z,2.33
2018-11-22T17:00:30.355Z,2.38
2018-11-22T17:05:25.218Z,2.54
2018-11-22T17:10:21.431Z,2.62
2018-11-22T17:15:17.777Z,2.75
2018-11-22T17:20:14.287Z,2.95
2018-11-22T17:25:13.036Z,3.04
2018-11-22T17:30:12.063Z,3.03
2018-11-22T17:35:08.059Z,3.07
2018-11-22T17:40:03.581Z,3.07
2018-11-22T17:44:58.725Z,3.10
2018-11-22T17:49:57.400Z,3.10
2018-11-22T17:54:52.311Z,3.18
2018-11-22T17:59:49.136Z,3.24
2018-11-22T18:04:45.951Z,3.24
2018-11-22T18:09:41.759Z,3.20
2018-11-22T18:14:36.799Z,3.15
2018-11-22T18:19:33.300Z,3.15
2018-11-22T18:24:32.236Z,3.11
2018-11-22T18:29:27.446Z,3.01
2018-11-22T18:34:23.248Z,3.04
2018-11-22T18:39:20.719Z,3.16
2018-11-22T18:44:15.725Z,3.13
2018-11-22T18:49:13.772Z,3.01
2018-11-22T18:54:12.976Z,2.99
2018-11-22T18:59:32.129Z,3.10
2018-11-22T19:15:16.740Z,3.06
2018-11-22T19:20:16.050Z,2.97
2018-11-22T19:25:11.494Z,2.93
2018-11-22T19:30:14.255Z,2.94
2018-11-22T19:35:15.479Z,2.77
2018-11-22T19:40:16.171Z,2.88
2018-11-22T19:45:14.240Z,2.88
2018-11-22T19:50:13.732Z,2.88
2018-11-22T19:55:14.207Z,2.86
2018-11-22T20:00:12.299Z,2.86
2018-11-22T20:05:10.844Z,2.93
2018-11-22T20:10:13.532Z,2.85
2018-11-22T20:15:12.884Z,2.67
2018-11-22T20:20:12.516Z,2.66
2018-11-22T20:25:09.969Z,2.81
2018-11-22T20:30:28.807Z,2.82
2018-11-22T20:35:31.947Z,2.87
2018-11-22T20:40:27.947Z,2.85
2018-11-22T20:45:40.810Z,2.81
2018-11-22T20:50:35.745Z,2.98
2018-11-22T21:01:02.976Z,2.63
2018-11-22T21:06:07.977Z,2.80
2018-11-22T21:11:02.925Z,2.74
2018-11-22T21:15:57.978Z,2.70
2018-11-22T21:20:53.037Z,2.65
2018-11-22T21:25:48.065Z,2.62
2018-11-22T21:30:46.117Z,2.60
2018-11-22T21:35:55.711Z,2.67
2018-11-22T21:40:50.686Z,2.51
2018-11-22T21:45:45.555Z,2.52
2018-11-22T21:50:40.432Z,2.55
2018-11-22T21:55:35.429Z,2.47
2018-11-22T22:00:37.874Z,2.47
2018-11-22T22:05:32.980Z,2.38
2018-11-22T22:10:28.148Z,2.41
2018-11-22T22:15:24.545Z,2.39
2018-11-22T22:20:24.983Z,2.40
2018-11-22T22:25:20.970Z,2.37
2018-11-22T22:30:17.570Z,2.40
2018-11-22T22:35:12.593Z,2.46
2018-11-22T22:40:12.906Z,2.10
2018-11-22T22:45:07.869Z,2.08
2018-11-22T22:50:03.599Z,2.26
2018-11-22T22:54:58.758Z,2.34
2018-11-22T22:59:53.849Z,2.53
2018-11-22T23:04:48.823Z,2.48
2018-11-22T23:09:43.756Z,2.55
2018-11-22T23:14:38.658Z,2.66
2018-11-22T23:19:33.785Z,2.50
2018-11-22T23:24:28.664Z,2.65
2018-11-22T23:29:23.496Z,2.48
2018-11-22T23:34:19.240Z,2.49
2018-11-22T23:39:14.095Z,2.52
2018-11-22T23:44:08.965Z,2.57
2018-11-22T23:49:03.782Z,2.57
2018-11-22T23:53:58.629Z,2.51
2018-11-22T23:59:22.347Z,2.38
